sensor_id;sensor_type;location;lat;lon;timestamp;P1;durP1;ratioP1;P2;durP2;ratioP2
1122;SDS011;548;48.778;9.252;2023-05-10T03:38:45;29.07;;;27.10;;
1122;SDS011;548;48.778;9.252;2023-05-10T03:41:12;27.87;;;26.50;;
1122;SDS011;548;48.778;9.252;2023-05-10T03:43:39;26.60;;;25.40;;
1122;SDS011;548;48.778;9.252;2023-05-10T03:46:06;27.20;;;26.00;;
1122;SDS011;548;48.778;9.252;2023-05-10T03:48:33;26.70;;;25.40;;
1122;SDS011;548;48.778;9.252;2023-05-10T03:50:59;27.30;;;26.00;;
1122;SDS011;548;48.778;9.252;2023-05-10T03:53:27;26.50;;;25.30;;
1122;SDS011;548;48.778;9.252;2023-05-10T03:55:55;26.70;;;25.50;;
1122;SDS011;548;48.778;9.252;2023-05-10T03:58:21;28.50;;;26.43;;
1122;SDS011;548;48.778;9.252;2023-05-10T04:00:48;25.30;;;24.10;;
1122;SDS011;548;48.778;9.252;2023-05-10T04:03:14;25.30;;;24.10;;
1122;SDS011;548;48.778;9.252;2023-05-10T04:05:42;25.80;;;24.60;;
1122;SDS011;548;48.778;9.252;2023-05-10T04:08:08;26.33;;;25.13;;
1122;SDS011;548;48.778;9.252;2023-05-10T04:10:35;24.30;;;23.20;;
1122;SDS011;548;48.778;9.252;2023-05-10T04:13:03;25.53;;;24.20;;
1122;SDS011;548;48.778;9.252;2023-05-10T04:15:30;24.43;;;22.93;;
1122;SDS011;548;48.778;9.252;2023-05-10T04:17:56;22.03;;;21.13;;
1122;SDS011;548;48.778;9.252;2023-05-10T04:20:23;22.40;;;21.40;;
1122;SDS011;548;48.778;9.252;2023-05-10T04:22:50;21.20;;;20.40;;
1122;SDS011;548;48.778;9.252;2023-05-10T04:25:16;21.77;;;20.87;;
1122;SDS011;548;48.778;9.252;2023-05-10T04:27:43;20.70;;;19.90;;
1122;SDS011;548;48.778;9.252;2023-05-10T04:30:11;19.20;;;18.50;;
1122;SDS011;548;48.778;9.252;2023-05-10T04:32:38;18.73;;;18.03;;
1122;SDS011;548;48.778;9.252;2023-05-10T04:35:05;18.90;;;18.10;;
1122;SDS011;548;48.778;9.252;2023-05-10T04:37:32;18.30;;;17.60;;
1122;SDS011;548;48.778;9.252;2023-05-10T04:39:59;17.63;;;17.00;;
1122;SDS011;548;48.778;9.252;2023-05-10T04:42:26;17.80;;;17.00;;
1122;SDS011;548;48.778;9.252;2023-05-10T04:44:52;17.20;;;16.60;;
1122;SDS011;548;48.778;9.252;2023-05-10T04:47:21;16.73;;;16.13;;
1122;SDS011;548;48.778;9.252;2023-05-10T04:49:47;16.90;;;16.30;;
1122;SDS011;548;48.778;9.252;2023-05-10T04:52:14;16.27;;;15.77;;
1122;SDS011;548;48.778;9.252;2023-05-10T04:54:42;15.70;;;15.03;;
1122;SDS011;548;48.778;9.252;2023-05-10T04:57:08;16.13;;;15.53;;
1122;SDS011;548;48.778;9.252;2023-05-10T04:59:35;15.50;;;15.00;;
1122;SDS011;548;48.778;9.252;2023-05-10T05:02:02;15.33;;;14.83;;
1122;SDS011;548;48.778;9.252;2023-05-10T05:04:30;15.10;;;14.50;;
1122;SDS011;548;48.778;9.252;2023-05-10T05:06:57;15.60;;;15.10;;
1122;SDS011;548;48.778;9.252;2023-05-10T05:09:24;16.07;;;15.57;;
1122;SDS011;548;48.778;9.252;2023-05-10T05:11:51;16.93;;;15.23;;
1122;SDS011;548;48.778;9.252;2023-05-10T05:14:18;16.27;;;15.40;;
1122;SDS011;548;48.778;9.252;2023-05-10T05:16:45;14.53;;;14.03;;
1122;SDS011;548;48.778;9.252;2023-05-10T05:19:12;14.67;;;14.17;;
1122;SDS011;548;48.778;9.252;2023-05-10T05:21:40;14.83;;;14.23;;
1122;SDS011;548;48.778;9.252;2023-05-10T05:24:07;14.50;;;13.80;;
1122;SDS011;548;48.778;9.252;2023-05-10T05:26:35;16.00;;;15.20;;
1122;SDS011;548;48.778;9.252;2023-05-10T05:29:02;15.00;;;14.50;;
1122;SDS011;548;48.778;9.252;2023-05-10T05:31:29;15.40;;;14.90;;
1122;SDS011;548;48.778;9.252;2023-05-10T05:33:56;15.10;;;14.60;;
1122;SDS011;548;48.778;9.252;2023-05-10T05:36:23;15.73;;;15.23;;
1122;SDS011;548;48.778;9.252;2023-05-10T05:38:51;14.50;;;14.00;;
1122;SDS011;548;48.778;9.252;2023-05-10T05:41:17;14.60;;;14.10;;
1122;SDS011;548;48.778;9.252;2023-05-10T05:43:45;15.67;;;15.07;;
1122;SDS011;548;48.778;9.252;2023-05-10T05:46:12;14.73;;;14.23;;
1122;SDS011;548;48.778;9.252;2023-05-10T05:48:38;15.47;;;14.87;;
1122;SDS011;548;48.778;9.252;2023-05-10T05:51:05;15.40;;;14.60;;
1122;SDS011;548;48.778;9.252;2023-05-10T05:53:32;14.70;;;14.10;;
1122;SDS011;548;48.778;9.252;2023-05-10T05:56:00;14.70;;;14.20;;
1122;SDS011;548;48.778;9.252;2023-05-10T05:58:28;14.27;;;13.77;;
1122;SDS011;548;48.778;9.252;2023-05-10T06:00:55;13.80;;;13.40;;
1122;SDS011;548;48.778;9.252;2023-05-10T06:03:22;13.23;;;12.83;;
1122;SDS011;548;48.778;9.252;2023-05-10T06:05:49;13.80;;;13.30;;
1122;SDS011;548;48.778;9.252;2023-05-10T06:08:16;15.30;;;14.70;;
1122;SDS011;548;48.778;9.252;2023-05-10T06:10:42;14.60;;;14.10;;
1122;SDS011;548;48.778;9.252;2023-05-10T06:13:11;14.07;;;13.63;;
1122;SDS011;548;48.778;9.252;2023-05-10T06:15:38;14.80;;;14.20;;
1122;SDS011;548;48.778;9.252;2023-05-10T06:18:05;13.80;;;13.30;;
1122;SDS011;548;48.778;9.252;2023-05-10T06:20:32;13.90;;;13.50;;
1122;SDS011;548;48.778;9.252;2023-05-10T06:22:58;14.50;;;13.80;;
1122;SDS011;548;48.778;9.252;2023-05-10T06:25:25;14.00;;;13.20;;
1122;SDS011;548;48.778;9.252;2023-05-10T06:27:52;15.17;;;14.47;;
1122;SDS011;548;48.778;9.252;2023-05-10T06:30:23;14.90;;;14.40;;
1122;SDS011;548;48.778;9.252;2023-05-10T06:32:53;13.80;;;13.40;;
1122;SDS011;548;48.778;9.252;2023-05-10T06:35:20;14.33;;;13.83;;
1122;SDS011;548;48.778;9.252;2023-05-10T06:37:47;14.40;;;13.90;;
1122;SDS011;548;48.778;9.252;2023-05-10T06:40:14;14.60;;;14.10;;
1122;SDS011;548;48.778;9.252;2023-05-10T06:42:41;14.77;;;14.27;;
1122;SDS011;548;48.778;9.252;2023-05-10T06:45:08;14.33;;;13.80;;
1122;SDS011;548;48.778;9.252;2023-05-10T06:47:38;16.20;;;15.60;;
1122;SDS011;548;48.778;9.252;2023-05-10T06:50:05;17.33;;;16.73;;
1122;SDS011;548;48.778;9.252;2023-05-10T06:52:32;16.87;;;16.07;;
1122;SDS011;548;48.778;9.252;2023-05-10T06:54:59;15.30;;;14.80;;
1122;SDS011;548;48.778;9.252;2023-05-10T06:57:32;16.37;;;15.77;;
1122;SDS011;548;48.778;9.252;2023-05-10T06:59:59;16.40;;;15.70;;
1122;SDS011;548;48.778;9.252;2023-05-10T07:02:25;15.93;;;15.37;;
1122;SDS011;548;48.778;9.252;2023-05-10T07:04:53;15.20;;;14.70;;
1122;SDS011;548;48.778;9.252;2023-05-10T07:07:20;15.27;;;14.60;;
1122;SDS011;548;48.778;9.252;2023-05-10T07:09:47;15.73;;;15.03;;
1122;SDS011;548;48.778;9.252;2023-05-10T07:12:14;14.40;;;13.90;;
1122;SDS011;548;48.778;9.252;2023-05-10T12:51:45;10.80;;;10.40;;
1122;SDS011;548;48.778;9.252;2023-05-10T12:54:12;11.30;;;10.90;;
1122;SDS011;548;48.778;9.252;2023-05-10T12:56:38;10.60;;;10.30;;
1122;SDS011;548;48.778;9.252;2023-05-10T12:59:05;11.57;;;11.07;;
1122;SDS011;548;48.778;9.252;2023-05-10T13:01:32;12.20;;;11.60;;
1122;SDS011;548;48.778;9.252;2023-05-10T13:04:01;10.60;;;10.20;;
1122;SDS011;548;48.778;9.252;2023-05-10T13:06:27;10.43;;;9.93;;
1122;SDS011;548;48.778;9.252;2023-05-10T13:08:55;12.27;;;11.43;;
1122;SDS011;548;48.778;9.252;2023-05-10T13:11:22;11.83;;;11.43;;
1122;SDS011;548;48.778;9.252;2023-05-10T13:13:49;12.90;;;12.43;;
1122;SDS011;548;48.778;9.252;2023-05-10T13:16:16;11.13;;;10.70;;
1122;SDS011;548;48.778;9.252;2023-05-10T13:18:42;10.80;;;10.40;;
1122;SDS011;548;48.778;9.252;2023-05-10T13:21:09;10.27;;;9.97;;
1122;SDS011;548;48.778;9.252;2023-05-10T13:23:36;12.70;;;12.10;;
1122;SDS011;548;48.778;9.252;2023-05-10T13:26:04;10.43;;;10.13;;
1122;SDS011;548;48.778;9.252;2023-05-10T13:28:30;10.63;;;10.20;;
1122;SDS011;548;48.778;9.252;2023-05-10T13:30:57;10.93;;;10.53;;
1122;SDS011;548;48.778;9.252;2023-05-10T13:33:24;10.60;;;10.20;;
1122;SDS011;548;48.778;9.252;2023-05-10T13:35:51;11.37;;;10.67;;
1122;SDS011;548;48.778;9.252;2023-05-10T13:38:18;10.47;;;9.83;;
1122;SDS011;548;48.778;9.252;2023-05-10T13:40:45;10.87;;;10.40;;
1122;SDS011;548;48.778;9.252;2023-05-10T13:43:13;11.90;;;11.30;;
1122;SDS011;548;48.778;9.252;2023-05-10T13:45:40;11.83;;;11.30;;
1122;SDS011;548;48.778;9.252;2023-05-10T13:48:06;11.70;;;11.30;;
1122;SDS011;548;48.778;9.252;2023-05-10T13:50:33;11.90;;;11.43;;
1122;SDS011;548;48.778;9.252;2023-05-10T13:53:00;11.23;;;10.93;;
1122;SDS011;548;48.778;9.252;2023-05-10T13:55:26;10.87;;;10.47;;
1122;SDS011;548;48.778;9.252;2023-05-10T13:57:53;11.77;;;11.37;;
1122;SDS011;548;48.778;9.252;2023-05-10T14:00:21;11.27;;;10.63;;
1122;SDS011;548;48.778;9.252;2023-05-10T14:02:48;10.87;;;10.47;;
1122;SDS011;548;48.778;9.252;2023-05-10T14:05:15;11.40;;;10.90;;
1122;SDS011;548;48.778;9.252;2023-05-10T14:07:41;12.40;;;12.00;;
1122;SDS011;548;48.778;9.252;2023-05-10T14:10:08;12.07;;;11.57;;
1122;SDS011;548;48.778;9.252;2023-05-10T14:12:35;11.10;;;10.67;;
1122;SDS011;548;48.778;9.252;2023-05-10T14:15:02;11.17;;;10.70;;
1122;SDS011;548;48.778;9.252;2023-05-10T14:17:32;12.10;;;11.60;;
1122;SDS011;548;48.778;9.252;2023-05-10T14:19:59;12.00;;;11.47;;
1122;SDS011;548;48.778;9.252;2023-05-10T14:22:26;11.10;;;10.80;;
1122;SDS011;548;48.778;9.252;2023-05-10T14:24:53;12.00;;;11.40;;
1122;SDS011;548;48.778;9.252;2023-05-10T14:27:19;12.20;;;11.70;;
1122;SDS011;548;48.778;9.252;2023-05-10T14:29:46;11.97;;;11.47;;
1122;SDS011;548;48.778;9.252;2023-05-10T14:32:13;11.33;;;10.93;;
1122;SDS011;548;48.778;9.252;2023-05-10T14:34:41;10.87;;;10.47;;
1122;SDS011;548;48.778;9.252;2023-05-10T14:37:09;11.43;;;11.03;;
1122;SDS011;548;48.778;9.252;2023-05-10T14:39:36;11.00;;;10.60;;
1122;SDS011;548;48.778;9.252;2023-05-10T14:42:02;11.50;;;11.10;;
1122;SDS011;548;48.778;9.252;2023-05-10T14:44:29;11.93;;;11.40;;
1122;SDS011;548;48.778;9.252;2023-05-10T14:46:56;10.87;;;10.47;;
1122;SDS011;548;48.778;9.252;2023-05-10T14:49:23;11.10;;;10.60;;
1122;SDS011;548;48.778;9.252;2023-05-10T14:51:52;10.83;;;10.50;;
1122;SDS011;548;48.778;9.252;2023-05-10T14:54:19;10.73;;;10.37;;
1122;SDS011;548;48.778;9.252;2023-05-10T14:56:45;11.70;;;11.17;;
1122;SDS011;548;48.778;9.252;2023-05-10T14:59:14;12.00;;;11.50;;
1122;SDS011;548;48.778;9.252;2023-05-10T15:01:41;11.83;;;11.33;;
1122;SDS011;548;48.778;9.252;2023-05-10T15:04:08;11.83;;;11.30;;
1122;SDS011;548;48.778;9.252;2023-05-10T15:06:34;11.83;;;11.10;;
1122;SDS011;548;48.778;9.252;2023-05-10T15:09:03;11.03;;;10.53;;
1122;SDS011;548;48.778;9.252;2023-05-10T15:11:29;11.90;;;11.50;;
1122;SDS011;548;48.778;9.252;2023-05-10T15:13:56;12.30;;;11.80;;
1122;SDS011;548;48.778;9.252;2023-05-10T15:16:23;12.20;;;11.70;;
1122;SDS011;548;48.778;9.252;2023-05-10T15:18:49;10.13;;;9.77;;
1122;SDS011;548;48.778;9.252;2023-05-10T15:21:16;10.00;;;9.70;;
1122;SDS011;548;48.778;9.252;2023-05-10T15:23:43;11.10;;;10.57;;
1122;SDS011;548;48.778;9.252;2023-05-10T15:26:11;12.00;;;11.40;;
1122;SDS011;548;48.778;9.252;2023-05-10T15:28:37;12.47;;;11.97;;
1122;SDS011;548;48.778;9.252;2023-05-10T15:31:04;11.30;;;10.90;;
1122;SDS011;548;48.778;9.252;2023-05-10T15:33:31;11.57;;;11.07;;
1122;SDS011;548;48.778;9.252;2023-05-10T15:35:57;10.90;;;10.50;;
1122;SDS011;548;48.778;9.252;2023-05-10T15:38:24;10.97;;;10.27;;
1122;SDS011;548;48.778;9.252;2023-05-10T15:40:51;11.83;;;11.20;;
1122;SDS011;548;48.778;9.252;2023-05-10T15:43:23;10.80;;;10.40;;
1122;SDS011;548;48.778;9.252;2023-05-10T15:45:50;10.97;;;10.50;;
1122;SDS011;548;48.778;9.252;2023-05-10T15:48:17;11.70;;;11.30;;
1122;SDS011;548;48.778;9.252;2023-05-10T15:50:43;11.93;;;11.40;;
1122;SDS011;548;48.778;9.252;2023-05-10T15:53:10;10.47;;;10.07;;
1122;SDS011;548;48.778;9.252;2023-05-10T15:55:37;11.20;;;10.80;;
1122;SDS011;548;48.778;9.252;2023-05-10T15:58:03;10.57;;;10.07;;
1122;SDS011;548;48.778;9.252;2023-05-10T16:00:31;9.83;;;9.23;;
1122;SDS011;548;48.778;9.252;2023-05-10T16:02:58;10.43;;;10.03;;
1122;SDS011;548;48.778;9.252;2023-05-10T16:05:25;12.30;;;11.73;;
1122;SDS011;548;48.778;9.252;2023-05-10T16:07:55;12.40;;;11.43;;
1122;SDS011;548;48.778;9.252;2023-05-10T16:10:22;10.03;;;9.73;;
1122;SDS011;548;48.778;9.252;2023-05-10T16:12:49;11.57;;;11.10;;
1122;SDS011;548;48.778;9.252;2023-05-10T16:15:15;11.37;;;10.87;;
1122;SDS011;548;48.778;9.252;2023-05-10T16:17:44;11.67;;;11.07;;
1122;SDS011;548;48.778;9.252;2023-05-10T16:20:10;11.13;;;10.73;;
1122;SDS011;548;48.778;9.252;2023-05-10T16:22:37;10.60;;;10.20;;
1122;SDS011;548;48.778;9.252;2023-05-10T16:25:04;10.23;;;9.83;;
1122;SDS011;548;48.778;9.252;2023-05-10T16:27:31;11.90;;;11.50;;
1122;SDS011;548;48.778;9.252;2023-05-10T16:29:58;10.70;;;10.40;;
1122;SDS011;548;48.778;9.252;2023-05-10T16:32:25;11.70;;;11.30;;
1122;SDS011;548;48.778;9.252;2023-05-10T16:34:52;11.63;;;10.77;;
1122;SDS011;548;48.778;9.252;2023-05-10T16:37:19;11.20;;;10.90;;
1122;SDS011;548;48.778;9.252;2023-05-10T16:39:46;11.30;;;10.80;;
1122;SDS011;548;48.778;9.252;2023-05-10T16:42:12;11.30;;;10.60;;
1122;SDS011;548;48.778;9.252;2023-05-10T16:44:39;10.50;;;9.90;;
1122;SDS011;548;48.778;9.252;2023-05-10T16:47:06;11.00;;;10.50;;
1122;SDS011;548;48.778;9.252;2023-05-10T16:49:33;11.33;;;10.83;;
1122;SDS011;548;48.778;9.252;2023-05-10T16:52:02;10.50;;;10.20;;
1122;SDS011;548;48.778;9.252;2023-05-10T16:54:29;11.37;;;10.87;;
1122;SDS011;548;48.778;9.252;2023-05-10T16:56:55;12.27;;;11.67;;
1122;SDS011;548;48.778;9.252;2023-05-10T16:59:22;11.17;;;10.77;;
1122;SDS011;548;48.778;9.252;2023-05-10T17:01:49;10.23;;;9.93;;
1122;SDS011;548;48.778;9.252;2023-05-10T17:04:17;10.03;;;9.73;;
1122;SDS011;548;48.778;9.252;2023-05-10T17:06:43;10.97;;;10.53;;
1122;SDS011;548;48.778;9.252;2023-05-10T17:09:12;9.80;;;9.50;;
1122;SDS011;548;48.778;9.252;2023-05-10T17:11:38;11.23;;;10.87;;
1122;SDS011;548;48.778;9.252;2023-05-10T17:14:06;10.67;;;10.27;;
1122;SDS011;548;48.778;9.252;2023-05-10T17:16:32;10.97;;;10.50;;
1122;SDS011;548;48.778;9.252;2023-05-10T17:18:59;12.50;;;12.00;;
1122;SDS011;548;48.778;9.252;2023-05-10T17:21:26;11.50;;;11.00;;
1122;SDS011;548;48.778;9.252;2023-05-10T17:23:52;11.40;;;11.00;;
1122;SDS011;548;48.778;9.252;2023-05-10T17:26:20;10.77;;;10.47;;
1122;SDS011;548;48.778;9.252;2023-05-10T17:28:47;10.60;;;10.07;;
1122;SDS011;548;48.778;9.252;2023-05-10T17:31:14;11.00;;;10.60;;
1122;SDS011;548;48.778;9.252;2023-05-10T17:33:41;11.23;;;10.73;;
1122;SDS011;548;48.778;9.252;2023-05-10T17:36:07;11.50;;;10.90;;
1122;SDS011;548;48.778;9.252;2023-05-10T17:38:34;11.67;;;11.00;;
1122;SDS011;548;48.778;9.252;2023-05-10T17:41:01;11.00;;;10.30;;
1122;SDS011;548;48.778;9.252;2023-05-10T17:43:29;10.50;;;10.10;;
1122;SDS011;548;48.778;9.252;2023-05-10T17:45:56;10.40;;;10.00;;
1122;SDS011;548;48.778;9.252;2023-05-10T17:48:22;10.73;;;10.27;;
1122;SDS011;548;48.778;9.252;2023-05-10T17:50:49;11.77;;;11.37;;
1122;SDS011;548;48.778;9.252;2023-05-10T17:53:16;10.90;;;10.60;;
1122;SDS011;548;48.778;9.252;2023-05-10T17:55:43;10.37;;;10.00;;
1122;SDS011;548;48.778;9.252;2023-05-10T17:58:10;10.50;;;10.13;;
1122;SDS011;548;48.778;9.252;2023-05-10T18:00:38;10.40;;;10.00;;
1122;SDS011;548;48.778;9.252;2023-05-10T18:03:05;10.90;;;10.50;;
1122;SDS011;548;48.778;9.252;2023-05-10T18:05:33;11.70;;;11.30;;
1122;SDS011;548;48.778;9.252;2023-05-10T18:08:01;10.70;;;10.30;;
1122;SDS011;548;48.778;9.252;2023-05-10T18:10:28;11.47;;;11.10;;
1122;SDS011;548;48.778;9.252;2023-05-10T18:12:55;10.90;;;10.60;;
1122;SDS011;548;48.778;9.252;2023-05-10T18:15:22;11.20;;;10.80;;
1122;SDS011;548;48.778;9.252;2023-05-10T18:17:50;11.97;;;11.57;;
1122;SDS011;548;48.778;9.252;2023-05-10T18:20:17;11.00;;;10.50;;
1122;SDS011;548;48.778;9.252;2023-05-10T18:22:44;11.47;;;10.60;;
1122;SDS011;548;48.778;9.252;2023-05-10T18:25:11;12.10;;;11.70;;
1122;SDS011;548;48.778;9.252;2023-05-10T18:27:37;11.10;;;10.60;;
1122;SDS011;548;48.778;9.252;2023-05-10T18:30:04;11.97;;;11.57;;
1122;SDS011;548;48.778;9.252;2023-05-10T18:32:34;10.33;;;10.00;;
1122;SDS011;548;48.778;9.252;2023-05-10T18:35:03;11.13;;;10.73;;
1122;SDS011;548;48.778;9.252;2023-05-10T18:37:30;10.73;;;10.33;;
1122;SDS011;548;48.778;9.252;2023-05-10T18:39:57;11.57;;;10.97;;
1122;SDS011;548;48.778;9.252;2023-05-10T18:42:24;10.33;;;10.00;;
1122;SDS011;548;48.778;9.252;2023-05-10T18:44:51;10.60;;;10.20;;
1122;SDS011;548;48.778;9.252;2023-05-10T18:47:20;10.87;;;9.87;;
1122;SDS011;548;48.778;9.252;2023-05-10T18:49:46;11.87;;;11.27;;
1122;SDS011;548;48.778;9.252;2023-05-10T18:52:14;11.57;;;11.27;;
1122;SDS011;548;48.778;9.252;2023-05-10T18:54:41;12.17;;;11.77;;
1122;SDS011;548;48.778;9.252;2023-05-10T18:57:08;11.30;;;10.80;;
1122;SDS011;548;48.778;9.252;2023-05-10T18:59:35;10.60;;;10.30;;
1122;SDS011;548;48.778;9.252;2023-05-10T19:02:01;10.90;;;10.50;;
1122;SDS011;548;48.778;9.252;2023-05-10T19:04:28;10.20;;;9.90;;
1122;SDS011;548;48.778;9.252;2023-05-10T19:06:55;10.20;;;9.90;;
1122;SDS011;548;48.778;9.252;2023-05-10T19:09:24;11.77;;;11.17;;
1122;SDS011;548;48.778;9.252;2023-05-10T19:11:51;11.33;;;10.93;;
1122;SDS011;548;48.778;9.252;2023-05-10T19:14:18;10.97;;;10.53;;
1122;SDS011;548;48.778;9.252;2023-05-10T19:16:45;10.47;;;10.17;;
1122;SDS011;548;48.778;9.252;2023-05-10T19:19:12;10.70;;;10.30;;
1122;SDS011;548;48.778;9.252;2023-05-10T19:21:38;10.87;;;10.37;;
1122;SDS011;548;48.778;9.252;2023-05-10T19:24:05;11.33;;;10.83;;
1122;SDS011;548;48.778;9.252;2023-05-10T19:26:33;11.13;;;10.73;;
1122;SDS011;548;48.778;9.252;2023-05-10T19:29:00;11.87;;;11.13;;
1122;SDS011;548;48.778;9.252;2023-05-10T19:31:27;12.13;;;11.53;;
1122;SDS011;548;48.778;9.252;2023-05-10T19:33:54;11.07;;;10.70;;
1122;SDS011;548;48.778;9.252;2023-05-10T19:36:20;10.60;;;10.23;;
1122;SDS011;548;48.778;9.252;2023-05-10T19:38:47;11.90;;;11.50;;
1122;SDS011;548;48.778;9.252;2023-05-10T19:41:13;11.80;;;11.33;;
1122;SDS011;548;48.778;9.252;2023-05-10T19:43:42;11.20;;;10.80;;
1122;SDS011;548;48.778;9.252;2023-05-10T19:46:08;12.27;;;11.63;;
1122;SDS011;548;48.778;9.252;2023-05-10T19:48:35;11.37;;;10.97;;
1122;SDS011;548;48.778;9.252;2023-05-10T19:51:03;11.23;;;10.80;;
1122;SDS011;548;48.778;9.252;2023-05-10T19:53:30;11.33;;;10.93;;
1122;SDS011;548;48.778;9.252;2023-05-10T19:56:01;11.43;;;11.10;;
1122;SDS011;548;48.778;9.252;2023-05-10T19:58:28;12.20;;;11.60;;
1122;SDS011;548;48.778;9.252;2023-05-10T20:00:56;11.80;;;11.40;;
1122;SDS011;548;48.778;9.252;2023-05-10T20:03:23;13.17;;;12.67;;
1122;SDS011;548;48.778;9.252;2023-05-10T20:05:49;11.47;;;11.03;;
1122;SDS011;548;48.778;9.252;2023-05-10T20:08:16;11.93;;;11.17;;
1122;SDS011;548;48.778;9.252;2023-05-10T20:10:43;13.03;;;12.27;;
1122;SDS011;548;48.778;9.252;2023-05-10T20:13:09;13.37;;;12.63;;
1122;SDS011;548;48.778;9.252;2023-05-10T20:15:36;12.20;;;11.20;;
1122;SDS011;548;48.778;9.252;2023-05-10T20:18:04;11.60;;;11.10;;
1122;SDS011;548;48.778;9.252;2023-05-10T20:20:31;11.70;;;10.97;;
1122;SDS011;548;48.778;9.252;2023-05-10T20:22:58;11.00;;;10.40;;
1122;SDS011;548;48.778;9.252;2023-05-10T20:25:25;12.13;;;11.63;;
1122;SDS011;548;48.778;9.252;2023-05-10T20:27:51;14.83;;;13.83;;
1122;SDS011;548;48.778;9.252;2023-05-10T20:30:18;11.73;;;11.13;;
1122;SDS011;548;48.778;9.252;2023-05-10T20:32:45;11.97;;;11.27;;
1122;SDS011;548;48.778;9.252;2023-05-10T20:35:13;12.20;;;11.50;;
1122;SDS011;548;48.778;9.252;2023-05-10T20:37:40;13.70;;;12.70;;
1122;SDS011;548;48.778;9.252;2023-05-10T20:40:07;11.53;;;10.93;;
1122;SDS011;548;48.778;9.252;2023-05-10T20:42:34;12.37;;;11.67;;
1122;SDS011;548;48.778;9.252;2023-05-10T20:45:01;12.17;;;11.67;;
1122;SDS011;548;48.778;9.252;2023-05-10T20:47:28;14.37;;;13.77;;
1122;SDS011;548;48.778;9.252;2023-05-10T20:49:56;13.40;;;12.70;;
1122;SDS011;548;48.778;9.252;2023-05-10T20:52:24;12.20;;;11.60;;
1122;SDS011;548;48.778;9.252;2023-05-10T20:54:51;12.30;;;11.90;;
1122;SDS011;548;48.778;9.252;2023-05-10T20:57:18;13.13;;;12.63;;
1122;SDS011;548;48.778;9.252;2023-05-10T20:59:45;13.83;;;12.93;;
1122;SDS011;548;48.778;9.252;2023-05-10T21:02:11;12.00;;;11.60;;
1122;SDS011;548;48.778;9.252;2023-05-10T21:04:38;11.07;;;10.67;;
1122;SDS011;548;48.778;9.252;2023-05-10T21:07:05;11.30;;;10.80;;
1122;SDS011;548;48.778;9.252;2023-05-10T21:09:34;12.90;;;12.40;;
1122;SDS011;548;48.778;9.252;2023-05-10T21:12:00;11.80;;;11.30;;
1122;SDS011;548;48.778;9.252;2023-05-10T21:14:27;10.73;;;10.43;;
1122;SDS011;548;48.778;9.252;2023-05-10T21:16:54;10.17;;;9.67;;
1122;SDS011;548;48.778;9.252;2023-05-10T21:19:20;11.43;;;10.97;;
1122;SDS011;548;48.778;9.252;2023-05-10T21:21:47;10.77;;;10.37;;
1122;SDS011;548;48.778;9.252;2023-05-10T21:24:14;10.20;;;9.90;;
1122;SDS011;548;48.778;9.252;2023-05-10T21:26:42;9.87;;;9.47;;
1122;SDS011;548;48.778;9.252;2023-05-10T21:29:08;9.77;;;9.47;;
1122;SDS011;548;48.778;9.252;2023-05-10T21:31:35;11.27;;;10.87;;
1122;SDS011;548;48.778;9.252;2023-05-10T21:34:02;11.23;;;10.83;;
1122;SDS011;548;48.778;9.252;2023-05-10T21:36:28;11.20;;;10.70;;
1122;SDS011;548;48.778;9.252;2023-05-10T21:38:56;10.10;;;9.80;;
1122;SDS011;548;48.778;9.252;2023-05-10T21:41:22;10.17;;;9.77;;
1122;SDS011;548;48.778;9.252;2023-05-10T21:43:50;10.53;;;10.20;;
1122;SDS011;548;48.778;9.252;2023-05-10T21:46:17;10.53;;;10.13;;
1122;SDS011;548;48.778;9.252;2023-05-10T21:48:44;10.07;;;9.77;;
1122;SDS011;548;48.778;9.252;2023-05-10T21:51:10;9.50;;;9.20;;
1122;SDS011;548;48.778;9.252;2023-05-10T21:53:37;9.63;;;9.33;;
1122;SDS011;548;48.778;9.252;2023-05-10T21:56:04;9.43;;;9.13;;
1122;SDS011;548;48.778;9.252;2023-05-10T21:58:31;10.07;;;9.67;;
1122;SDS011;548;48.778;9.252;2023-05-10T22:00:59;11.63;;;11.23;;
1122;SDS011;548;48.778;9.252;2023-05-10T22:03:26;11.60;;;11.20;;
1122;SDS011;548;48.778;9.252;2023-05-10T22:05:53;9.63;;;9.33;;
1122;SDS011;548;48.778;9.252;2023-05-10T22:08:20;11.07;;;10.67;;
1122;SDS011;548;48.778;9.252;2023-05-10T22:10:46;11.70;;;11.20;;
1122;SDS011;548;48.778;9.252;2023-05-10T22:13:13;11.10;;;10.80;;
1122;SDS011;548;48.778;9.252;2023-05-10T22:15:40;11.10;;;10.80;;
1122;SDS011;548;48.778;9.252;2023-05-10T22:18:09;10.87;;;10.57;;
1122;SDS011;548;48.778;9.252;2023-05-10T22:20:36;10.70;;;10.40;;
1122;SDS011;548;48.778;9.252;2023-05-10T22:23:02;10.57;;;10.17;;
1122;SDS011;548;48.778;9.252;2023-05-10T22:25:29;11.80;;;11.10;;
1122;SDS011;548;48.778;9.252;2023-05-10T22:27:56;10.70;;;10.30;;
1122;SDS011;548;48.778;9.252;2023-05-10T22:30:23;11.30;;;10.80;;
1122;SDS011;548;48.778;9.252;2023-05-10T22:32:49;12.93;;;12.43;;
1122;SDS011;548;48.778;9.252;2023-05-10T22:35:17;13.20;;;12.67;;
1122;SDS011;548;48.778;9.252;2023-05-10T22:37:45;12.37;;;11.87;;
1122;SDS011;548;48.778;9.252;2023-05-10T22:40:11;12.43;;;12.03;;
1122;SDS011;548;48.778;9.252;2023-05-10T22:42:38;11.23;;;10.83;;
1122;SDS011;548;48.778;9.252;2023-05-10T22:45:05;12.13;;;11.73;;
1122;SDS011;548;48.778;9.252;2023-05-10T22:47:33;12.43;;;12.03;;
1122;SDS011;548;48.778;9.252;2023-05-10T22:49:59;11.40;;;11.10;;
1122;SDS011;548;48.778;9.252;2023-05-10T22:52:29;12.30;;;11.90;;
